createdAt,value
2023-07-17T00:00:48.359Z,9.93
2023-07-17T00:03:15.787Z,5.97
2023-07-17T00:05:43.084Z,8.88
2023-07-17T00:08:12.267Z,7.85
2023-07-17T00:10:42.184Z,7.22
2023-07-17T00:13:09.338Z,9.35
2023-07-17T00:15:36.511Z,8.07
2023-07-17T00:18:03.781Z,9.52
2023-07-17T00:20:30.855Z,10.05
2023-07-17T00:22:57.861Z,9.25
2023-07-17T00:25:25.817Z,8.85
2023-07-17T00:27:54.589Z,10.25
2023-07-17T00:30:22.087Z,7.28
2023-07-17T00:32:49.138Z,9.48
2023-07-17T00:35:17.246Z,14.07
2023-07-17T00:37:44.604Z,10.35
2023-07-17T00:40:12.479Z,11.88
2023-07-17T00:42:41.431Z,10.65
2023-07-17T00:45:09.287Z,9.55
2023-07-17T00:47:37.568Z,9.95
2023-07-17T00:50:06.380Z,7.22
2023-07-17T00:52:33.523Z,9.18
2023-07-17T00:55:01.101Z,11.23
2023-07-17T00:57:28.306Z,9.05
2023-07-17T00:59:56.058Z,12.05
2023-07-17T01:02:24.070Z,11.95
2023-07-17T01:04:51.081Z,9.77
2023-07-17T01:07:18.123Z,7.78
2023-07-17T01:09:45.500Z,10.02
2023-07-17T01:12:12.837Z,9.38
2023-07-17T01:14:40.646Z,7.72
2023-07-17T01:17:08.443Z,9.20
2023-07-17T01:19:36.035Z,9.25
2023-07-17T01:22:12.254Z,7.78
2023-07-17T01:24:39.293Z,8.27
2023-07-17T01:27:08.185Z,8.48
2023-07-17T01:29:37.504Z,11.10
2023-07-17T01:32:05.165Z,11.55
2023-07-17T01:34:33.252Z,7.45
2023-07-17T01:37:00.352Z,10.02
2023-07-17T01:39:28.066Z,8.00
2023-07-17T01:41:55.252Z,9.85
2023-07-17T01:44:22.336Z,8.95
2023-07-17T01:46:49.640Z,11.52
2023-07-17T01:49:18.006Z,10.10
2023-07-17T01:51:44.976Z,13.18
2023-07-17T01:54:12.921Z,7.85
2023-07-17T01:56:40.301Z,8.75
2023-07-17T01:59:07.425Z,9.45
2023-07-17T02:01:35.018Z,12.18
2023-07-17T02:04:02.846Z,13.13
2023-07-17T02:06:30.125Z,13.25
2023-07-17T02:08:57.393Z,7.25
2023-07-17T02:11:29.400Z,8.77
2023-07-17T02:13:56.256Z,12.30
2023-07-17T02:16:26.079Z,13.93
2023-07-17T02:18:53.556Z,10.50
2023-07-17T02:21:20.637Z,11.50
2023-07-17T02:23:48.311Z,8.65
2023-07-17T02:26:15.286Z,6.63
2023-07-17T02:28:42.273Z,8.40
2023-07-17T02:31:09.239Z,10.10
2023-07-17T02:33:36.201Z,6.00
2023-07-17T02:36:09.024Z,9.55
2023-07-17T02:38:36.227Z,9.82
2023-07-17T02:41:03.468Z,7.63
2023-07-17T02:43:30.485Z,9.95
2023-07-17T02:45:57.532Z,9.40
2023-07-17T02:48:24.617Z,7.43
2023-07-17T02:50:53.016Z,10.68
2023-07-17T02:53:19.906Z,7.90
2023-07-17T02:55:47.103Z,12.02
2023-07-17T02:58:18.387Z,11.60
2023-07-17T03:00:47.547Z,7.72
2023-07-17T03:03:15.284Z,9.98
2023-07-17T03:05:42.399Z,10.52
2023-07-17T03:08:09.414Z,8.02
2023-07-17T03:10:36.435Z,10.60
2023-07-17T03:13:03.400Z,8.95
2023-07-17T03:15:32.730Z,9.30
2023-07-17T03:18:00.154Z,9.75
2023-07-17T03:20:28.771Z,10.50
2023-07-17T03:22:58.582Z,13.27
2023-07-17T03:25:25.621Z,8.98
2023-07-17T03:27:52.734Z,9.50
2023-07-17T03:30:20.201Z,11.15
2023-07-17T03:32:47.175Z,11.65
2023-07-17T03:35:14.649Z,9.43
2023-07-17T03:37:41.627Z,12.13
2023-07-17T03:40:11.566Z,11.18
2023-07-17T03:42:40.634Z,16.40
2023-07-17T03:45:08.421Z,9.45
2023-07-17T03:47:35.481Z,9.38
2023-07-17T03:50:02.539Z,11.57
2023-07-17T03:52:29.606Z,11.20
2023-07-17T03:54:56.618Z,9.25
2023-07-17T03:57:23.721Z,9.45
2023-07-17T03:59:55.989Z,10.77
2023-07-17T04:02:24.291Z,6.35
2023-07-17T04:04:52.128Z,14.70
2023-07-17T04:07:19.206Z,12.02
2023-07-17T04:09:46.189Z,11.35
2023-07-17T04:12:13.561Z,8.73
2023-07-17T04:14:40.503Z,8.38
2023-07-17T04:17:07.778Z,8.23
2023-07-17T04:19:34.885Z,9.82
2023-07-17T04:22:02.143Z,11.30
2023-07-17T04:24:29.567Z,12.27
2023-07-17T04:26:56.556Z,8.20
2023-07-17T04:29:24.410Z,12.77
2023-07-17T04:31:51.464Z,11.68
2023-07-17T04:34:19.865Z,6.20
2023-07-17T04:36:47.579Z,10.80
2023-07-17T04:39:14.761Z,9.63
2023-07-17T04:41:42.392Z,11.32
2023-07-17T04:44:12.484Z,6.75
2023-07-17T04:46:39.516Z,8.18
2023-07-17T04:49:06.702Z,11.10
2023-07-17T04:51:34.654Z,6.93
2023-07-17T04:54:01.598Z,8.27
2023-07-17T04:56:28.581Z,8.25
2023-07-17T04:58:55.556Z,9.45
2023-07-17T05:01:22.905Z,9.05
2023-07-17T05:03:51.722Z,8.15
2023-07-17T05:06:18.719Z,12.02
2023-07-17T05:08:45.721Z,10.70
2023-07-17T05:11:12.951Z,10.10
2023-07-17T05:13:39.926Z,9.65
2023-07-17T05:16:07.292Z,8.35
2023-07-17T05:18:34.677Z,7.57
2023-07-17T05:21:01.819Z,8.18
2023-07-17T05:23:29.241Z,9.27
2023-07-17T05:25:59.322Z,7.97
2023-07-17T05:28:26.924Z,9.88
2023-07-17T05:30:55.995Z,9.55
2023-07-17T05:33:25.289Z,8.23
2023-07-17T05:35:53.213Z,13.98
2023-07-17T05:41:04.879Z,8.00
2023-07-17T05:43:33.144Z,5.95
2023-07-17T05:46:02.020Z,9.48
2023-07-17T05:48:29.188Z,11.77
2023-07-17T05:50:56.994Z,11.02
2023-07-17T05:53:23.990Z,11.43
2023-07-17T05:55:51.302Z,12.30
2023-07-17T05:58:18.576Z,9.63
2023-07-17T06:00:47.359Z,7.43
2023-07-17T06:03:14.501Z,10.65
2023-07-17T06:05:42.182Z,9.75
2023-07-17T06:08:10.176Z,10.45
2023-07-17T06:10:39.235Z,9.45
2023-07-17T06:13:06.555Z,10.10
2023-07-17T06:15:33.792Z,10.32
2023-07-17T06:18:00.997Z,8.98
2023-07-17T06:20:27.946Z,11.63
2023-07-17T06:22:55.347Z,11.98
2023-07-17T06:25:22.489Z,13.35
2023-07-17T06:27:49.621Z,10.88
2023-07-17T06:30:16.775Z,8.82
2023-07-17T06:32:47.283Z,9.57
2023-07-17T06:35:14.567Z,8.30
2023-07-17T06:37:41.491Z,7.88
2023-07-17T06:40:09.410Z,9.43
2023-07-17T06:42:36.337Z,8.23
2023-07-17T06:45:04.139Z,12.32
2023-07-17T06:47:37.387Z,8.73
2023-07-17T06:50:06.897Z,12.23
2023-07-17T06:52:33.870Z,6.95
2023-07-17T06:55:05.583Z,12.57
2023-07-17T06:57:34.596Z,8.40
2023-07-17T07:00:01.990Z,11.40
2023-07-17T07:02:29.169Z,11.95
2023-07-17T07:04:56.413Z,8.63
2023-07-17T07:07:23.484Z,7.78
2023-07-17T07:09:51.064Z,9.27
2023-07-17T07:12:18.532Z,9.23
2023-07-17T07:14:45.744Z,10.85
2023-07-17T07:17:13.622Z,12.57
2023-07-17T07:19:40.785Z,13.63
2023-07-17T07:22:08.547Z,9.52
2023-07-17T07:24:35.827Z,10.15
2023-07-17T07:27:02.761Z,9.48
2023-07-17T07:29:29.793Z,6.57
2023-07-17T07:31:57.019Z,7.93
2023-07-17T07:34:25.488Z,10.18
2023-07-17T07:36:52.873Z,8.75
2023-07-17T07:39:19.908Z,9.52
2023-07-17T07:41:47.312Z,13.45
2023-07-17T07:44:16.549Z,7.97
2023-07-17T07:46:44.403Z,9.20
2023-07-17T07:49:12.787Z,7.82
2023-07-17T07:51:40.238Z,9.50
2023-07-17T07:54:07.819Z,11.73
2023-07-17T07:56:34.981Z,11.23
2023-07-17T07:59:02.315Z,6.88
2023-07-17T08:01:29.376Z,11.23
2023-07-17T08:03:56.637Z,9.95
2023-07-17T08:06:24.615Z,10.32
2023-07-17T08:08:52.107Z,8.38
2023-07-17T08:11:23.417Z,11.45
2023-07-17T08:13:52.371Z,13.53
2023-07-17T08:16:21.226Z,8.10
2023-07-17T08:18:48.701Z,9.70
2023-07-17T08:21:16.219Z,7.40
2023-07-17T08:23:44.815Z,9.55
2023-07-17T08:26:12.142Z,6.40
2023-07-17T08:28:39.126Z,9.50
2023-07-17T08:31:06.150Z,8.15
2023-07-17T08:33:33.272Z,7.30
2023-07-17T08:36:00.961Z,12.05
2023-07-17T08:38:28.736Z,8.05
2023-07-17T08:40:58.356Z,10.30
2023-07-17T08:43:25.536Z,6.63
2023-07-17T08:45:54.199Z,12.10
2023-07-17T08:48:21.900Z,10.40
2023-07-17T08:50:49.211Z,12.60
2023-07-17T08:53:18.538Z,13.77
2023-07-17T08:55:46.781Z,11.70
2023-07-17T08:58:13.870Z,10.35
2023-07-17T09:00:44.179Z,9.10
2023-07-17T09:03:11.349Z,8.00
2023-07-17T09:05:38.440Z,10.18
2023-07-17T09:08:05.799Z,9.13
2023-07-17T09:10:37.173Z,14.70
2023-07-17T09:13:06.262Z,9.10
2023-07-17T09:15:34.389Z,9.50
2023-07-17T09:18:02.545Z,8.73
2023-07-17T09:20:29.972Z,6.68
2023-07-17T09:23:02.554Z,9.90
2023-07-17T09:25:31.887Z,6.50
2023-07-17T09:28:00.054Z,6.95
2023-07-17T09:30:28.359Z,6.40
2023-07-17T09:33:06.912Z,4.68
2023-07-17T09:35:34.133Z,8.95
2023-07-17T09:38:01.204Z,8.07
2023-07-17T09:40:29.333Z,4.88
2023-07-17T09:42:57.610Z,6.95
2023-07-17T09:45:25.897Z,8.10
2023-07-17T09:47:53.663Z,8.77
2023-07-17T09:50:25.196Z,7.53
2023-07-17T09:52:57.980Z,10.40
2023-07-17T09:55:30.798Z,5.22
2023-07-17T09:58:00.535Z,6.25
2023-07-17T10:00:29.086Z,5.97
2023-07-17T10:03:14.568Z,7.03
2023-07-17T10:05:42.953Z,4.10
2023-07-17T10:08:17.965Z,6.00
2023-07-17T10:10:45.092Z,9.43
2023-07-17T10:13:12.737Z,6.30
2023-07-17T10:15:40.269Z,9.82
2023-07-17T10:18:12.930Z,3.63
2023-07-17T10:20:53.267Z,6.32
2023-07-17T10:23:28.172Z,5.35
2023-07-17T10:26:11.830Z,6.00
2023-07-17T10:28:39.642Z,5.75
2023-07-17T10:31:22.958Z,6.43
2023-07-17T10:34:11.930Z,5.68
2023-07-17T10:36:43.042Z,5.50
2023-07-17T10:39:18.154Z,6.40
2023-07-17T10:41:45.444Z,4.10
2023-07-17T10:44:23.543Z,7.05
2023-07-17T10:46:50.860Z,3.85
2023-07-17T10:49:19.543Z,4.65
2023-07-17T10:51:54.878Z,8.80
2023-07-17T10:54:21.948Z,5.57
2023-07-17T10:56:51.152Z,5.03
2023-07-17T10:59:21.893Z,3.65
2023-07-17T11:01:49.143Z,5.60
2023-07-17T11:04:19.406Z,4.15
2023-07-17T11:06:48.189Z,4.68
2023-07-17T11:09:15.319Z,5.93
2023-07-17T11:11:44.474Z,6.05
2023-07-17T11:14:18.500Z,3.58
2023-07-17T11:16:46.965Z,6.38
2023-07-17T11:19:13.985Z,4.68
2023-07-17T11:21:41.356Z,5.07
2023-07-17T11:24:09.238Z,5.75
2023-07-17T11:26:36.592Z,5.97
2023-07-17T11:29:04.079Z,4.38
2023-07-17T11:31:35.374Z,5.28
2023-07-17T11:39:19.554Z,4.63
2023-07-17T11:41:57.280Z,5.57
2023-07-17T11:44:33.697Z,11.40
2023-07-17T11:47:09.629Z,5.30
2023-07-17T11:49:39.206Z,6.55
2023-07-17T11:52:21.538Z,5.28
2023-07-17T11:54:51.420Z,7.10
2023-07-17T11:57:29.182Z,7.70
2023-07-17T12:00:08.543Z,5.68
2023-07-17T12:02:35.512Z,6.07
2023-07-17T12:05:04.004Z,4.68
2023-07-17T12:07:31.039Z,6.78
2023-07-17T12:09:57.928Z,8.98
2023-07-17T12:12:25.066Z,5.75
2023-07-17T12:17:44.625Z,4.85
2023-07-17T12:20:17.934Z,6.13
2023-07-17T12:22:49.759Z,4.78
2023-07-17T12:25:17.347Z,3.63
2023-07-17T12:27:47.327Z,6.50
2023-07-17T12:30:22.401Z,6.32
2023-07-17T12:32:51.265Z,3.38
2023-07-17T12:35:18.464Z,3.40
2023-07-17T12:37:45.661Z,3.70
2023-07-17T12:40:13.073Z,7.28
2023-07-17T12:42:41.641Z,3.70
2023-07-17T12:45:09.611Z,3.10
2023-07-17T12:47:37.633Z,4.32
2023-07-17T12:50:07.489Z,4.40
2023-07-17T12:52:34.776Z,4.05
2023-07-17T12:55:02.016Z,3.63
2023-07-17T12:57:29.332Z,4.78
2023-07-17T12:59:57.769Z,6.15
2023-07-17T13:02:26.149Z,3.35
2023-07-17T13:04:54.272Z,3.95
2023-07-17T13:07:22.504Z,4.70
2023-07-17T13:09:49.784Z,4.50
2023-07-17T13:12:17.195Z,3.80
2023-07-17T13:14:45.240Z,5.65
2023-07-17T13:17:12.630Z,4.05
2023-07-17T13:19:41.289Z,3.08
2023-07-17T13:22:09.359Z,5.35
2023-07-17T13:24:37.844Z,4.30
2023-07-17T13:27:06.493Z,3.53
2023-07-17T13:29:34.649Z,4.70
2023-07-17T13:32:01.872Z,6.10
2023-07-17T13:34:29.083Z,6.18
2023-07-17T13:36:57.104Z,4.18
2023-07-17T13:39:28.132Z,3.38
2023-07-17T13:41:55.169Z,6.38
2023-07-17T13:44:24.333Z,3.85
2023-07-17T13:46:51.778Z,4.38
2023-07-17T13:49:21.475Z,4.32
2023-07-17T13:51:49.563Z,4.25
2023-07-17T13:54:21.067Z,2.78
2023-07-17T13:59:18.736Z,3.25
2023-07-17T14:01:45.758Z,3.15
2023-07-17T14:04:17.122Z,7.22
2023-07-17T14:06:44.143Z,2.55
2023-07-17T14:09:12.436Z,6.47
2023-07-17T14:11:41.660Z,3.75
2023-07-17T14:14:09.779Z,6.15
2023-07-17T14:16:37.106Z,2.60
2023-07-17T14:19:04.247Z,7.10
2023-07-17T14:21:31.433Z,5.63
2023-07-17T14:23:58.367Z,5.35
2023-07-17T14:26:25.806Z,4.75
2023-07-17T14:28:52.871Z,2.78
2023-07-17T14:31:24.189Z,3.85
2023-07-17T14:33:51.099Z,4.37
2023-07-17T14:36:18.337Z,5.10
2023-07-17T14:38:45.549Z,5.40
2023-07-17T14:41:12.934Z,6.25
2023-07-17T14:43:40.635Z,6.00
2023-07-17T14:46:07.784Z,6.63
2023-07-17T14:48:41.028Z,4.00
2023-07-17T14:51:08.337Z,2.80
2023-07-17T14:53:35.477Z,3.53
2023-07-17T14:56:02.494Z,3.55
2023-07-17T14:58:30.859Z,3.55
2023-07-17T15:00:58.259Z,7.70
2023-07-17T15:03:26.628Z,3.22
2023-07-17T15:05:53.801Z,3.40
2023-07-17T15:08:20.662Z,4.28
2023-07-17T15:10:49.997Z,3.75
2023-07-17T15:13:16.900Z,7.53
2023-07-17T15:15:44.030Z,3.58
2023-07-17T15:18:11.477Z,4.38
2023-07-17T15:20:38.433Z,6.45
2023-07-17T15:23:05.582Z,1.95
2023-07-17T15:25:32.532Z,5.55
2023-07-17T15:28:00.160Z,5.15
2023-07-17T15:30:27.060Z,4.10
2023-07-17T15:32:54.374Z,3.05
2023-07-17T15:35:21.375Z,4.03
2023-07-17T15:37:48.535Z,3.45
2023-07-17T15:40:15.429Z,2.42
2023-07-17T15:42:44.600Z,3.22
2023-07-17T15:45:27.284Z,4.60
2023-07-17T15:47:54.508Z,3.03
2023-07-17T15:50:21.488Z,3.70
2023-07-17T15:52:48.989Z,2.40
2023-07-17T15:55:16.203Z,4.55
2023-07-17T15:57:43.797Z,3.67
2023-07-17T16:00:12.909Z,2.25
2023-07-17T16:02:39.873Z,2.78
2023-07-17T16:05:10.703Z,3.30
2023-07-17T16:07:39.846Z,4.15
2023-07-17T16:10:10.592Z,2.90
2023-07-17T16:12:37.478Z,5.47
2023-07-17T16:15:06.567Z,2.63
2023-07-17T16:17:34.495Z,3.47
2023-07-17T16:20:02.089Z,4.65
2023-07-17T16:22:38.007Z,2.55
2023-07-17T16:25:05.762Z,2.75
2023-07-17T16:27:33.169Z,4.28
2023-07-17T16:30:00.067Z,2.33
2023-07-17T16:32:30.133Z,4.00
2023-07-17T16:34:57.839Z,4.53
2023-07-17T16:37:26.178Z,2.53
2023-07-17T16:39:54.786Z,3.95
2023-07-17T16:42:22.211Z,3.35
2023-07-17T16:44:49.726Z,3.60
2023-07-17T16:47:18.252Z,2.72
2023-07-17T16:49:45.682Z,4.20
2023-07-17T16:52:12.812Z,1.63
2023-07-17T16:54:40.848Z,4.57
2023-07-17T16:57:09.223Z,3.17
2023-07-17T16:59:36.635Z,3.08
2023-07-17T17:02:05.458Z,2.85
2023-07-17T17:04:32.996Z,2.58
2023-07-17T17:07:05.237Z,1.90
2023-07-17T17:09:32.746Z,3.45
2023-07-17T17:11:59.827Z,1.75
2023-07-17T17:14:27.384Z,3.95
2023-07-17T17:16:57.980Z,2.92
2023-07-17T17:19:25.535Z,2.47
2023-07-17T17:21:52.678Z,3.63
2023-07-17T17:24:21.178Z,4.88
2023-07-17T17:26:48.271Z,5.55
2023-07-17T17:29:16.921Z,4.65
2023-07-17T17:31:44.658Z,4.25
2023-07-17T17:34:13.139Z,4.22
2023-07-17T17:36:40.006Z,2.00
2023-07-17T17:39:08.809Z,3.95
2023-07-17T17:41:37.711Z,3.58
2023-07-17T17:44:05.995Z,4.82
2023-07-17T17:46:32.917Z,4.50
2023-07-17T17:48:59.988Z,1.95
2023-07-17T17:51:27.619Z,5.30
2023-07-17T17:56:36.298Z,2.83
2023-07-17T17:59:04.296Z,3.35
2023-07-17T18:01:33.313Z,3.42
2023-07-17T18:04:02.550Z,2.15
2023-07-17T18:06:35.436Z,2.47
2023-07-17T18:09:04.531Z,2.35
2023-07-17T18:11:36.127Z,3.88
2023-07-17T18:14:11.113Z,4.80
2023-07-17T18:16:41.531Z,7.43
2023-07-17T18:19:11.839Z,3.47
2023-07-17T18:21:40.291Z,2.60
2023-07-17T18:24:10.409Z,3.40
2023-07-17T18:26:37.408Z,1.90
2023-07-17T18:29:04.712Z,1.90
2023-07-17T18:31:31.680Z,2.72
2023-07-17T18:33:58.987Z,6.60
2023-07-17T18:36:25.998Z,2.97
2023-07-17T18:38:53.011Z,4.18
2023-07-17T18:41:20.438Z,4.55
2023-07-17T18:43:52.322Z,1.85
2023-07-17T18:46:23.133Z,2.92
2023-07-17T18:48:50.392Z,3.65
2023-07-17T18:51:19.657Z,5.25
2023-07-17T18:53:47.442Z,2.80
2023-07-17T18:56:16.353Z,5.13
2023-07-17T18:58:43.498Z,4.07
2023-07-17T19:01:12.868Z,3.47
2023-07-17T19:03:45.863Z,3.10
2023-07-17T19:06:13.438Z,2.47
2023-07-17T19:08:40.876Z,2.00
2023-07-17T19:11:18.268Z,4.60
2023-07-17T19:13:54.204Z,4.43
2023-07-17T19:16:21.591Z,2.15
2023-07-17T19:18:49.379Z,1.92
2023-07-17T19:21:16.611Z,5.72
2023-07-17T19:23:48.769Z,2.75
2023-07-17T19:26:19.704Z,2.92
2023-07-17T19:28:46.740Z,4.03
2023-07-17T19:31:13.833Z,1.98
2023-07-17T19:33:40.876Z,6.35
2023-07-17T19:36:13.617Z,3.58
2023-07-17T19:38:40.691Z,3.55
2023-07-17T19:41:10.449Z,3.25
2023-07-17T19:43:37.845Z,4.20
2023-07-17T19:46:05.530Z,3.95
2023-07-17T19:48:33.001Z,4.00
2023-07-17T19:51:01.377Z,1.88
2023-07-17T19:53:28.446Z,6.30
2023-07-17T19:56:04.282Z,2.78
2023-07-17T19:58:31.315Z,2.92
2023-07-17T20:00:59.191Z,3.75
2023-07-17T20:03:30.892Z,4.60
2023-07-17T20:05:58.659Z,5.25
2023-07-17T20:08:25.926Z,5.50
2023-07-17T20:10:54.344Z,3.17
2023-07-17T20:13:22.707Z,3.08
2023-07-17T20:15:50.045Z,3.50
2023-07-17T20:18:18.448Z,3.28
2023-07-17T20:20:45.492Z,3.63
2023-07-17T20:23:12.548Z,6.50
2023-07-17T20:25:40.054Z,4.35
2023-07-17T20:28:07.812Z,2.45
2023-07-17T20:30:34.772Z,3.83
2023-07-17T20:33:01.818Z,4.30
2023-07-17T20:35:30.085Z,8.13
2023-07-17T20:37:59.237Z,1.70
2023-07-17T20:40:27.750Z,2.85
2023-07-17T20:43:00.926Z,4.50
2023-07-17T20:45:34.003Z,2.35
2023-07-17T20:48:02.202Z,2.78
2023-07-17T20:50:29.721Z,3.88
2023-07-17T20:52:58.153Z,2.22
2023-07-17T20:55:25.700Z,3.15
2023-07-17T20:57:52.584Z,2.08
2023-07-17T21:00:19.948Z,2.90
2023-07-17T21:02:47.352Z,2.42
2023-07-17T21:05:14.514Z,4.43
2023-07-17T21:07:41.469Z,2.75
2023-07-17T21:10:09.365Z,2.45
2023-07-17T21:12:37.377Z,3.60
2023-07-17T21:15:04.881Z,2.60
2023-07-17T21:17:34.591Z,1.33
2023-07-17T21:20:04.450Z,4.93
2023-07-17T21:22:31.474Z,2.55
2023-07-17T21:24:58.372Z,3.40
2023-07-17T21:27:26.131Z,6.07
2023-07-17T21:29:53.483Z,3.35
2023-07-17T21:32:21.259Z,5.03
2023-07-17T21:34:48.355Z,5.80
2023-07-17T21:37:15.364Z,7.95
2023-07-17T21:39:43.256Z,3.60
2023-07-17T21:42:10.506Z,5.32
2023-07-17T21:44:37.586Z,5.38
2023-07-17T21:47:05.429Z,5.63
2023-07-17T21:49:32.578Z,4.28
2023-07-17T21:51:59.944Z,3.78
2023-07-17T21:54:28.683Z,3.17
2023-07-17T21:56:56.133Z,4.93
2023-07-17T21:59:23.165Z,2.83
2023-07-17T22:01:50.121Z,2.75
2023-07-17T22:04:17.037Z,4.97
2023-07-17T22:06:44.136Z,3.83
2023-07-17T22:09:11.459Z,5.90
2023-07-17T22:11:38.964Z,3.20
2023-07-17T22:14:07.806Z,4.63
2023-07-17T22:16:35.358Z,3.75
2023-07-17T22:19:02.324Z,6.63
2023-07-17T22:21:30.355Z,4.38
2023-07-17T22:23:59.004Z,5.57
2023-07-17T22:26:27.557Z,7.00
2023-07-17T22:28:57.251Z,3.30
2023-07-17T22:31:24.841Z,3.20
2023-07-17T22:33:52.408Z,1.85
2023-07-17T22:36:19.412Z,3.13
2023-07-17T22:38:47.367Z,2.75
2023-07-17T22:41:15.149Z,8.05
2023-07-17T22:43:42.875Z,4.13
2023-07-17T22:46:11.313Z,4.07
2023-07-17T22:48:38.602Z,9.52
2023-07-17T22:51:06.171Z,2.85
2023-07-17T22:53:33.850Z,2.28
2023-07-17T22:56:01.292Z,2.55
2023-07-17T22:58:29.049Z,3.75
2023-07-17T23:00:56.145Z,3.15
2023-07-17T23:03:23.100Z,5.88
2023-07-17T23:05:50.480Z,5.18
2023-07-17T23:08:17.992Z,1.70
2023-07-17T23:10:45.057Z,7.55
2023-07-17T23:15:57.078Z,5.28
2023-07-17T23:18:24.557Z,4.07
2023-07-17T23:20:52.891Z,2.38
2023-07-17T23:23:20.587Z,2.95
2023-07-17T23:25:47.898Z,1.42
2023-07-17T23:28:15.780Z,4.43
2023-07-17T23:30:42.809Z,4.43
2023-07-17T23:33:10.630Z,4.05
2023-07-17T23:35:38.976Z,4.43
2023-07-17T23:38:07.418Z,2.35
2023-07-17T23:40:34.414Z,3.88
2023-07-17T23:43:03.935Z,4.03
2023-07-17T23:45:33.156Z,2.92
2023-07-17T23:48:01.212Z,5.80
2023-07-17T23:50:28.315Z,1.88
2023-07-17T23:52:55.296Z,2.38
2023-07-17T23:55:22.643Z,6.68
2023-07-17T23:57:51.174Z,3.17
